sensor_id;sensor_type;location;lat;lon;timestamp;P1;durP1;ratioP1;P2;durP2;ratioP2
70975;SDS011;58635;51.198;6.010;2023-07-20T00:00:35;5.03;;;2.83;;
70975;SDS011;58635;51.198;6.010;2023-07-20T00:03:11;7.03;;;2.70;;
70975;SDS011;58635;51.198;6.010;2023-07-20T00:05:42;6.72;;;2.53;;
70975;SDS011;58635;51.198;6.010;2023-07-20T00:08:09;4.47;;;2.40;;
70975;SDS011;58635;51.198;6.010;2023-07-20T00:10:36;5.00;;;2.60;;
70975;SDS011;58635;51.198;6.010;2023-07-20T00:13:02;4.97;;;2.50;;
70975;SDS011;58635;51.198;6.010;2023-07-20T00:15:29;6.28;;;2.83;;
70975;SDS011;58635;51.198;6.010;2023-07-20T00:17:55;4.38;;;2.20;;
70975;SDS011;58635;51.198;6.010;2023-07-20T00:20:23;5.40;;;2.65;;
70975;SDS011;58635;51.198;6.010;2023-07-20T00:22:50;4.47;;;2.63;;
70975;SDS011;58635;51.198;6.010;2023-07-20T00:25:20;4.60;;;2.33;;
70975;SDS011;58635;51.198;6.010;2023-07-20T00:27:47;6.10;;;2.70;;
70975;SDS011;58635;51.198;6.010;2023-07-20T00:30:13;4.35;;;2.58;;
70975;SDS011;58635;51.198;6.010;2023-07-20T00:32:41;5.38;;;2.40;;
70975;SDS011;58635;51.198;6.010;2023-07-20T00:35:08;4.53;;;2.53;;
70975;SDS011;58635;51.198;6.010;2023-07-20T00:37:35;5.25;;;2.58;;
70975;SDS011;58635;51.198;6.010;2023-07-20T00:40:02;5.65;;;2.63;;
70975;SDS011;58635;51.198;6.010;2023-07-20T00:42:31;5.18;;;2.45;;
70975;SDS011;58635;51.198;6.010;2023-07-20T00:44:57;4.65;;;2.28;;
70975;SDS011;58635;51.198;6.010;2023-07-20T00:47:24;4.20;;;2.42;;
70975;SDS011;58635;51.198;6.010;2023-07-20T00:49:50;5.80;;;2.40;;
70975;SDS011;58635;51.198;6.010;2023-07-20T00:52:17;4.93;;;2.45;;
70975;SDS011;58635;51.198;6.010;2023-07-20T00:54:47;6.05;;;2.50;;
70975;SDS011;58635;51.198;6.010;2023-07-20T00:57:14;7.55;;;2.72;;
70975;SDS011;58635;51.198;6.010;2023-07-20T00:59:41;5.47;;;2.55;;
70975;SDS011;58635;51.198;6.010;2023-07-20T01:02:08;4.05;;;2.40;;
70975;SDS011;58635;51.198;6.010;2023-07-20T01:04:34;5.03;;;2.30;;
70975;SDS011;58635;51.198;6.010;2023-07-20T01:07:03;4.95;;;2.55;;
70975;SDS011;58635;51.198;6.010;2023-07-20T01:09:42;4.90;;;2.38;;
70975;SDS011;58635;51.198;6.010;2023-07-20T01:12:22;4.95;;;2.35;;
70975;SDS011;58635;51.198;6.010;2023-07-20T01:14:54;4.32;;;2.42;;
70975;SDS011;58635;51.198;6.010;2023-07-20T01:17:20;5.50;;;2.50;;
70975;SDS011;58635;51.198;6.010;2023-07-20T01:19:47;5.10;;;2.40;;
70975;SDS011;58635;51.198;6.010;2023-07-20T01:33:10;4.63;;;2.60;;
70975;SDS011;58635;51.198;6.010;2023-07-20T01:35:39;5.35;;;2.60;;
70975;SDS011;58635;51.198;6.010;2023-07-20T01:38:10;4.80;;;2.58;;
70975;SDS011;58635;51.198;6.010;2023-07-20T01:40:38;4.57;;;2.75;;
70975;SDS011;58635;51.198;6.010;2023-07-20T01:43:06;6.18;;;2.95;;
70975;SDS011;58635;51.198;6.010;2023-07-20T01:45:32;6.22;;;3.33;;
70975;SDS011;58635;51.198;6.010;2023-07-20T01:47:59;6.88;;;3.25;;
70975;SDS011;58635;51.198;6.010;2023-07-20T01:50:25;6.10;;;2.65;;
70975;SDS011;58635;51.198;6.010;2023-07-20T01:52:51;7.90;;;2.90;;
70975;SDS011;58635;51.198;6.010;2023-07-20T01:55:18;5.88;;;2.88;;
70975;SDS011;58635;51.198;6.010;2023-07-20T01:57:44;6.95;;;2.80;;
70975;SDS011;58635;51.198;6.010;2023-07-20T02:00:11;6.18;;;3.10;;
70975;SDS011;58635;51.198;6.010;2023-07-20T02:02:38;6.65;;;3.00;;
70975;SDS011;58635;51.198;6.010;2023-07-20T02:05:04;6.60;;;3.28;;
70975;SDS011;58635;51.198;6.010;2023-07-20T02:07:31;6.55;;;3.00;;
70975;SDS011;58635;51.198;6.010;2023-07-20T02:09:58;6.82;;;2.88;;
70975;SDS011;58635;51.198;6.010;2023-07-20T02:12:24;7.75;;;3.00;;
70975;SDS011;58635;51.198;6.010;2023-07-20T02:14:50;6.25;;;3.08;;
70975;SDS011;58635;51.198;6.010;2023-07-20T02:17:17;5.82;;;3.50;;
70975;SDS011;58635;51.198;6.010;2023-07-20T02:19:43;5.53;;;2.90;;
70975;SDS011;58635;51.198;6.010;2023-07-20T02:22:10;7.15;;;3.30;;
70975;SDS011;58635;51.198;6.010;2023-07-20T02:24:36;5.47;;;3.45;;
70975;SDS011;58635;51.198;6.010;2023-07-20T02:27:02;6.55;;;3.38;;
70975;SDS011;58635;51.198;6.010;2023-07-20T02:29:29;7.07;;;3.25;;
70975;SDS011;58635;51.198;6.010;2023-07-20T02:31:55;7.40;;;2.88;;
70975;SDS011;58635;51.198;6.010;2023-07-20T02:34:22;6.75;;;3.33;;
70975;SDS011;58635;51.198;6.010;2023-07-20T02:36:48;6.88;;;3.35;;
70975;SDS011;58635;51.198;6.010;2023-07-20T02:39:15;5.88;;;3.08;;
70975;SDS011;58635;51.198;6.010;2023-07-20T02:41:41;6.50;;;3.40;;
70975;SDS011;58635;51.198;6.010;2023-07-20T02:44:08;7.28;;;3.20;;
70975;SDS011;58635;51.198;6.010;2023-07-20T02:46:34;7.75;;;3.17;;
70975;SDS011;58635;51.198;6.010;2023-07-20T02:49:01;5.53;;;3.03;;
70975;SDS011;58635;51.198;6.010;2023-07-20T02:51:27;6.03;;;3.28;;
70975;SDS011;58635;51.198;6.010;2023-07-20T02:53:54;6.22;;;3.60;;
70975;SDS011;58635;51.198;6.010;2023-07-20T02:56:20;6.22;;;3.55;;
70975;SDS011;58635;51.198;6.010;2023-07-20T02:58:46;5.65;;;3.53;;
70975;SDS011;58635;51.198;6.010;2023-07-20T03:01:13;7.93;;;3.53;;
70975;SDS011;58635;51.198;6.010;2023-07-20T03:03:44;8.63;;;4.10;;
70975;SDS011;58635;51.198;6.010;2023-07-20T03:06:13;6.93;;;3.85;;
70975;SDS011;58635;51.198;6.010;2023-07-20T03:08:41;8.48;;;3.50;;
70975;SDS011;58635;51.198;6.010;2023-07-20T03:11:11;6.18;;;3.45;;
70975;SDS011;58635;51.198;6.010;2023-07-20T03:13:37;8.30;;;3.65;;
70975;SDS011;58635;51.198;6.010;2023-07-20T03:16:04;10.15;;;3.58;;
70975;SDS011;58635;51.198;6.010;2023-07-20T03:18:30;7.65;;;3.60;;
70975;SDS011;58635;51.198;6.010;2023-07-20T03:20:57;6.35;;;3.58;;
70975;SDS011;58635;51.198;6.010;2023-07-20T03:23:23;7.45;;;3.78;;
70975;SDS011;58635;51.198;6.010;2023-07-20T03:25:49;9.55;;;3.97;;
70975;SDS011;58635;51.198;6.010;2023-07-20T03:28:16;7.53;;;3.60;;
70975;SDS011;58635;51.198;6.010;2023-07-20T03:30:42;7.68;;;4.05;;
70975;SDS011;58635;51.198;6.010;2023-07-20T03:33:08;8.18;;;4.03;;
70975;SDS011;58635;51.198;6.010;2023-07-20T03:35:35;7.50;;;4.18;;
70975;SDS011;58635;51.198;6.010;2023-07-20T03:38:01;7.30;;;4.10;;
70975;SDS011;58635;51.198;6.010;2023-07-20T03:40:28;11.43;;;4.75;;
70975;SDS011;58635;51.198;6.010;2023-07-20T03:42:54;7.30;;;4.68;;
70975;SDS011;58635;51.198;6.010;2023-07-20T03:45:20;9.68;;;5.30;;
70975;SDS011;58635;51.198;6.010;2023-07-20T03:47:50;8.00;;;5.03;;
70975;SDS011;58635;51.198;6.010;2023-07-20T03:50:16;9.52;;;5.05;;
70975;SDS011;58635;51.198;6.010;2023-07-20T03:52:42;7.35;;;4.47;;
70975;SDS011;58635;51.198;6.010;2023-07-20T03:55:09;8.60;;;4.30;;
70975;SDS011;58635;51.198;6.010;2023-07-20T03:57:35;9.70;;;5.57;;
70975;SDS011;58635;51.198;6.010;2023-07-20T04:00:02;12.43;;;5.30;;
70975;SDS011;58635;51.198;6.010;2023-07-20T04:02:32;9.15;;;5.63;;
70975;SDS011;58635;51.198;6.010;2023-07-20T04:04:59;11.48;;;6.25;;
70975;SDS011;58635;51.198;6.010;2023-07-20T04:07:25;11.65;;;6.20;;
70975;SDS011;58635;51.198;6.010;2023-07-20T04:09:52;11.35;;;6.03;;
70975;SDS011;58635;51.198;6.010;2023-07-20T04:12:18;9.30;;;5.60;;
70975;SDS011;58635;51.198;6.010;2023-07-20T04:14:44;9.20;;;6.70;;
70975;SDS011;58635;51.198;6.010;2023-07-20T04:17:11;13.68;;;8.07;;
70975;SDS011;58635;51.198;6.010;2023-07-20T04:19:39;11.27;;;7.13;;
70975;SDS011;58635;51.198;6.010;2023-07-20T04:22:05;10.60;;;7.53;;
70975;SDS011;58635;51.198;6.010;2023-07-20T04:24:32;10.02;;;7.80;;
70975;SDS011;58635;51.198;6.010;2023-07-20T04:26:58;13.13;;;7.50;;
70975;SDS011;58635;51.198;6.010;2023-07-20T04:29:24;13.18;;;7.80;;
70975;SDS011;58635;51.198;6.010;2023-07-20T04:31:51;10.43;;;7.53;;
70975;SDS011;58635;51.198;6.010;2023-07-20T04:34:17;11.05;;;7.53;;
70975;SDS011;58635;51.198;6.010;2023-07-20T04:36:43;11.38;;;7.85;;
70975;SDS011;58635;51.198;6.010;2023-07-20T04:39:10;10.15;;;7.75;;
70975;SDS011;58635;51.198;6.010;2023-07-20T04:41:36;11.93;;;7.80;;
70975;SDS011;58635;51.198;6.010;2023-07-20T04:44:03;11.30;;;8.05;;
70975;SDS011;58635;51.198;6.010;2023-07-20T04:46:29;12.68;;;8.07;;
70975;SDS011;58635;51.198;6.010;2023-07-20T04:48:56;12.57;;;7.90;;
70975;SDS011;58635;51.198;6.010;2023-07-20T04:51:22;11.52;;;7.57;;
70975;SDS011;58635;51.198;6.010;2023-07-20T04:53:49;11.52;;;7.93;;
70975;SDS011;58635;51.198;6.010;2023-07-20T04:56:15;13.10;;;7.85;;
70975;SDS011;58635;51.198;6.010;2023-07-20T04:58:41;14.32;;;8.20;;
70975;SDS011;58635;51.198;6.010;2023-07-20T05:01:08;13.52;;;8.85;;
70975;SDS011;58635;51.198;6.010;2023-07-20T05:03:34;13.02;;;9.52;;
70975;SDS011;58635;51.198;6.010;2023-07-20T05:06:01;13.88;;;8.82;;
70975;SDS011;58635;51.198;6.010;2023-07-20T05:08:27;17.17;;;8.40;;
70975;SDS011;58635;51.198;6.010;2023-07-20T05:10:54;12.00;;;7.88;;
70975;SDS011;58635;51.198;6.010;2023-07-20T05:13:20;12.52;;;8.23;;
70975;SDS011;58635;51.198;6.010;2023-07-20T05:15:46;11.57;;;8.95;;
70975;SDS011;58635;51.198;6.010;2023-07-20T05:18:13;12.18;;;8.48;;
70975;SDS011;58635;51.198;6.010;2023-07-20T05:20:39;12.45;;;7.97;;
70975;SDS011;58635;51.198;6.010;2023-07-20T05:23:06;11.65;;;8.45;;
70975;SDS011;58635;51.198;6.010;2023-07-20T05:25:32;16.52;;;9.88;;
70975;SDS011;58635;51.198;6.010;2023-07-20T05:27:58;14.13;;;9.93;;
70975;SDS011;58635;51.198;6.010;2023-07-20T05:30:25;13.20;;;9.13;;
70975;SDS011;58635;51.198;6.010;2023-07-20T05:32:51;13.65;;;9.52;;
70975;SDS011;58635;51.198;6.010;2023-07-20T05:35:18;12.40;;;8.52;;
70975;SDS011;58635;51.198;6.010;2023-07-20T05:37:45;13.32;;;8.98;;
70975;SDS011;58635;51.198;6.010;2023-07-20T05:40:12;14.32;;;8.68;;
70975;SDS011;58635;51.198;6.010;2023-07-20T05:42:38;11.55;;;8.52;;
70975;SDS011;58635;51.198;6.010;2023-07-20T05:45:05;11.93;;;7.93;;
70975;SDS011;58635;51.198;6.010;2023-07-20T05:47:32;8.57;;;6.35;;
70975;SDS011;58635;51.198;6.010;2023-07-20T05:49:58;9.52;;;6.53;;
70975;SDS011;58635;51.198;6.010;2023-07-20T05:52:25;10.80;;;6.80;;
70975;SDS011;58635;51.198;6.010;2023-07-20T05:54:51;8.55;;;6.50;;
70975;SDS011;58635;51.198;6.010;2023-07-20T05:57:17;8.13;;;6.85;;
70975;SDS011;58635;51.198;6.010;2023-07-20T05:59:44;8.85;;;6.57;;
70975;SDS011;58635;51.198;6.010;2023-07-20T06:02:10;9.50;;;6.85;;
70975;SDS011;58635;51.198;6.010;2023-07-20T06:04:38;10.15;;;7.00;;
70975;SDS011;58635;51.198;6.010;2023-07-20T06:07:05;11.52;;;6.57;;
70975;SDS011;58635;51.198;6.010;2023-07-20T06:09:33;9.50;;;6.82;;
70975;SDS011;58635;51.198;6.010;2023-07-20T06:12:00;7.40;;;5.90;;
70975;SDS011;58635;51.198;6.010;2023-07-20T06:14:26;10.38;;;6.00;;
70975;SDS011;58635;51.198;6.010;2023-07-20T06:16:53;11.38;;;7.53;;
70975;SDS011;58635;51.198;6.010;2023-07-20T06:19:19;7.50;;;6.22;;
70975;SDS011;58635;51.198;6.010;2023-07-20T06:21:46;9.48;;;6.93;;
70975;SDS011;58635;51.198;6.010;2023-07-20T06:24:12;7.82;;;5.55;;
70975;SDS011;58635;51.198;6.010;2023-07-20T06:26:38;8.85;;;6.20;;
70975;SDS011;58635;51.198;6.010;2023-07-20T06:29:05;8.18;;;5.85;;
70975;SDS011;58635;51.198;6.010;2023-07-20T06:31:32;9.07;;;6.40;;
70975;SDS011;58635;51.198;6.010;2023-07-20T06:34:00;11.10;;;6.50;;
70975;SDS011;58635;51.198;6.010;2023-07-20T06:36:27;9.20;;;6.32;;
70975;SDS011;58635;51.198;6.010;2023-07-20T06:38:53;8.77;;;7.25;;
70975;SDS011;58635;51.198;6.010;2023-07-20T06:41:20;8.40;;;6.97;;
70975;SDS011;58635;51.198;6.010;2023-07-20T06:43:46;7.97;;;6.20;;
70975;SDS011;58635;51.198;6.010;2023-07-20T06:46:13;9.15;;;6.55;;
70975;SDS011;58635;51.198;6.010;2023-07-20T06:48:40;7.70;;;6.50;;
70975;SDS011;58635;51.198;6.010;2023-07-20T06:51:06;7.97;;;5.68;;
70975;SDS011;58635;51.198;6.010;2023-07-20T06:53:32;8.75;;;6.05;;
70975;SDS011;58635;51.198;6.010;2023-07-20T06:55:59;10.68;;;6.05;;
70975;SDS011;58635;51.198;6.010;2023-07-20T06:58:25;7.43;;;5.70;;
70975;SDS011;58635;51.198;6.010;2023-07-20T07:00:51;7.32;;;5.68;;
70975;SDS011;58635;51.198;6.010;2023-07-20T07:03:19;7.70;;;5.50;;
70975;SDS011;58635;51.198;6.010;2023-07-20T07:05:45;7.32;;;5.00;;
70975;SDS011;58635;51.198;6.010;2023-07-20T07:08:12;6.55;;;4.90;;
70975;SDS011;58635;51.198;6.010;2023-07-20T07:10:39;6.35;;;4.57;;
70975;SDS011;58635;51.198;6.010;2023-07-20T07:13:05;7.80;;;6.28;;
70975;SDS011;58635;51.198;6.010;2023-07-20T07:15:31;7.80;;;5.35;;
70975;SDS011;58635;51.198;6.010;2023-07-20T07:18:00;6.78;;;5.03;;
70975;SDS011;58635;51.198;6.010;2023-07-20T07:20:26;7.70;;;4.60;;
70975;SDS011;58635;51.198;6.010;2023-07-20T07:23:02;6.38;;;4.35;;
70975;SDS011;58635;51.198;6.010;2023-07-20T07:25:29;7.13;;;4.60;;
70975;SDS011;58635;51.198;6.010;2023-07-20T07:27:57;6.10;;;4.32;;
70975;SDS011;58635;51.198;6.010;2023-07-20T07:30:23;7.25;;;4.15;;
70975;SDS011;58635;51.198;6.010;2023-07-20T07:32:50;7.20;;;4.30;;
70975;SDS011;58635;51.198;6.010;2023-07-20T07:35:16;4.75;;;3.28;;
70975;SDS011;58635;51.198;6.010;2023-07-20T07:37:42;6.20;;;3.67;;
70975;SDS011;58635;51.198;6.010;2023-07-20T07:40:09;5.13;;;2.83;;
70975;SDS011;58635;51.198;6.010;2023-07-20T07:42:36;7.22;;;3.00;;
70975;SDS011;58635;51.198;6.010;2023-07-20T07:45:03;3.95;;;2.97;;
70975;SDS011;58635;51.198;6.010;2023-07-20T07:47:30;4.63;;;3.00;;
70975;SDS011;58635;51.198;6.010;2023-07-20T07:49:56;3.65;;;2.58;;
70975;SDS011;58635;51.198;6.010;2023-07-20T07:52:23;6.40;;;3.47;;
70975;SDS011;58635;51.198;6.010;2023-07-20T07:54:49;4.70;;;3.25;;
70975;SDS011;58635;51.198;6.010;2023-07-20T07:57:16;4.65;;;2.50;;
70975;SDS011;58635;51.198;6.010;2023-07-20T07:59:42;3.60;;;2.38;;
70975;SDS011;58635;51.198;6.010;2023-07-20T08:02:09;4.07;;;1.75;;
70975;SDS011;58635;51.198;6.010;2023-07-20T08:04:36;3.03;;;1.90;;
70975;SDS011;58635;51.198;6.010;2023-07-20T08:07:03;4.40;;;2.47;;
70975;SDS011;58635;51.198;6.010;2023-07-20T08:09:30;4.15;;;2.00;;
70975;SDS011;58635;51.198;6.010;2023-07-20T08:11:56;2.65;;;1.20;;
70975;SDS011;58635;51.198;6.010;2023-07-20T08:14:22;3.05;;;1.40;;
70975;SDS011;58635;51.198;6.010;2023-07-20T08:16:49;3.40;;;1.65;;
70975;SDS011;58635;51.198;6.010;2023-07-20T08:19:15;3.10;;;2.40;;
70975;SDS011;58635;51.198;6.010;2023-07-20T08:21:42;4.75;;;2.70;;
70975;SDS011;58635;51.198;6.010;2023-07-20T08:24:08;4.60;;;2.90;;
70975;SDS011;58635;51.198;6.010;2023-07-20T08:26:35;5.30;;;2.97;;
70975;SDS011;58635;51.198;6.010;2023-07-20T08:29:01;5.82;;;2.47;;
70975;SDS011;58635;51.198;6.010;2023-07-20T08:31:27;85.47;;;6.65;;
70975;SDS011;58635;51.198;6.010;2023-07-20T08:33:54;47.03;;;3.75;;
70975;SDS011;58635;51.198;6.010;2023-07-20T08:36:23;18.80;;;3.22;;
70975;SDS011;58635;51.198;6.010;2023-07-20T08:38:49;4.15;;;2.10;;
70975;SDS011;58635;51.198;6.010;2023-07-20T08:41:16;2.90;;;1.27;;
70975;SDS011;58635;51.198;6.010;2023-07-20T08:43:42;3.90;;;1.00;;
70975;SDS011;58635;51.198;6.010;2023-07-20T08:46:11;5.00;;;1.70;;
70975;SDS011;58635;51.198;6.010;2023-07-20T08:48:39;2.10;;;1.20;;
70975;SDS011;58635;51.198;6.010;2023-07-20T08:51:10;2.20;;;1.00;;
70975;SDS011;58635;51.198;6.010;2023-07-20T08:53:38;1.45;;;0.90;;
70975;SDS011;58635;51.198;6.010;2023-07-20T08:56:05;2.17;;;1.10;;
70975;SDS011;58635;51.198;6.010;2023-07-20T08:58:33;1.92;;;0.90;;
70975;SDS011;58635;51.198;6.010;2023-07-20T09:01:01;2.67;;;0.90;;
70975;SDS011;58635;51.198;6.010;2023-07-20T09:03:28;3.33;;;1.05;;
70975;SDS011;58635;51.198;6.010;2023-07-20T09:05:54;2.72;;;1.30;;
70975;SDS011;58635;51.198;6.010;2023-07-20T09:08:21;2.03;;;1.17;;
70975;SDS011;58635;51.198;6.010;2023-07-20T09:10:47;3.08;;;1.17;;
70975;SDS011;58635;51.198;6.010;2023-07-20T09:13:14;3.35;;;1.70;;
70975;SDS011;58635;51.198;6.010;2023-07-20T09:15:48;3.35;;;1.98;;
70975;SDS011;58635;51.198;6.010;2023-07-20T09:18:23;3.45;;;1.30;;
70975;SDS011;58635;51.198;6.010;2023-07-20T09:21:03;1.73;;;1.10;;
70975;SDS011;58635;51.198;6.010;2023-07-20T09:23:36;3.00;;;1.23;;
70975;SDS011;58635;51.198;6.010;2023-07-20T09:26:10;3.38;;;1.10;;
70975;SDS011;58635;51.198;6.010;2023-07-20T09:28:42;2.40;;;1.20;;
70975;SDS011;58635;51.198;6.010;2023-07-20T09:31:19;2.78;;;1.30;;
70975;SDS011;58635;51.198;6.010;2023-07-20T09:33:47;2.85;;;1.20;;
70975;SDS011;58635;51.198;6.010;2023-07-20T09:36:14;2.58;;;1.13;;
70975;SDS011;58635;51.198;6.010;2023-07-20T09:38:41;2.50;;;1.38;;
70975;SDS011;58635;51.198;6.010;2023-07-20T09:41:12;3.08;;;1.70;;
70975;SDS011;58635;51.198;6.010;2023-07-20T09:43:41;2.10;;;1.33;;
70975;SDS011;58635;51.198;6.010;2023-07-20T09:46:08;3.08;;;2.00;;
70975;SDS011;58635;51.198;6.010;2023-07-20T09:48:35;2.72;;;1.50;;
70975;SDS011;58635;51.198;6.010;2023-07-20T09:51:01;2.65;;;1.10;;
70975;SDS011;58635;51.198;6.010;2023-07-20T09:53:27;2.35;;;1.17;;
70975;SDS011;58635;51.198;6.010;2023-07-20T09:55:54;2.47;;;1.52;;
70975;SDS011;58635;51.198;6.010;2023-07-20T09:58:21;2.92;;;1.40;;
70975;SDS011;58635;51.198;6.010;2023-07-20T10:00:48;3.17;;;1.30;;
70975;SDS011;58635;51.198;6.010;2023-07-20T10:03:19;2.28;;;1.33;;
70975;SDS011;58635;51.198;6.010;2023-07-20T10:05:57;1.73;;;1.30;;
70975;SDS011;58635;51.198;6.010;2023-07-20T10:08:26;3.20;;;1.13;;
70975;SDS011;58635;51.198;6.010;2023-07-20T10:10:57;3.03;;;1.10;;
70975;SDS011;58635;51.198;6.010;2023-07-20T10:13:27;3.38;;;1.27;;
70975;SDS011;58635;51.198;6.010;2023-07-20T10:15:58;3.08;;;1.20;;
70975;SDS011;58635;51.198;6.010;2023-07-20T10:18:30;2.05;;;1.13;;
70975;SDS011;58635;51.198;6.010;2023-07-20T10:21:01;1.65;;;1.10;;
70975;SDS011;58635;51.198;6.010;2023-07-20T10:23:31;3.95;;;2.30;;
70975;SDS011;58635;51.198;6.010;2023-07-20T10:25:59;3.17;;;1.10;;
70975;SDS011;58635;51.198;6.010;2023-07-20T10:28:27;1.30;;;0.90;;
70975;SDS011;58635;51.198;6.010;2023-07-20T10:30:54;1.63;;;0.90;;
70975;SDS011;58635;51.198;6.010;2023-07-20T10:33:20;1.90;;;0.82;;
70975;SDS011;58635;51.198;6.010;2023-07-20T10:35:54;1.75;;;0.80;;
70975;SDS011;58635;51.198;6.010;2023-07-20T10:41:04;1.00;;;0.70;;
70975;SDS011;58635;51.198;6.010;2023-07-20T10:43:30;1.77;;;0.80;;
70975;SDS011;58635;51.198;6.010;2023-07-20T10:46:13;4.18;;;0.85;;
70975;SDS011;58635;51.198;6.010;2023-07-20T10:49:22;2.47;;;0.82;;
70975;SDS011;58635;51.198;6.010;2023-07-20T10:51:30;2.17;;;1.02;;
70975;SDS011;58635;51.198;6.010;2023-07-20T10:56:44;2.15;;;0.80;;
70975;SDS011;58635;51.198;6.010;2023-07-20T10:59:17;1.33;;;0.65;;
70975;SDS011;58635;51.198;6.010;2023-07-20T11:01:48;0.82;;;0.70;;
70975;SDS011;58635;51.198;6.010;2023-07-20T11:04:17;1.10;;;0.77;;
70975;SDS011;58635;51.198;6.010;2023-07-20T11:06:48;0.98;;;0.60;;
70975;SDS011;58635;51.198;6.010;2023-07-20T11:09:22;3.72;;;0.85;;
70975;SDS011;58635;51.198;6.010;2023-07-20T11:11:51;3.05;;;0.88;;
70975;SDS011;58635;51.198;6.010;2023-07-20T11:14:35;1.55;;;0.90;;
70975;SDS011;58635;51.198;6.010;2023-07-20T11:17:11;3.03;;;1.30;;
70975;SDS011;58635;51.198;6.010;2023-07-20T11:19:39;6.97;;;2.38;;
70975;SDS011;58635;51.198;6.010;2023-07-20T11:22:07;3.55;;;1.08;;
70975;SDS011;58635;51.198;6.010;2023-07-20T11:24:34;2.83;;;1.00;;
70975;SDS011;58635;51.198;6.010;2023-07-20T11:27:00;2.15;;;0.88;;
70975;SDS011;58635;51.198;6.010;2023-07-20T11:29:27;3.63;;;0.90;;
70975;SDS011;58635;51.198;6.010;2023-07-20T11:31:53;2.10;;;0.80;;
70975;SDS011;58635;51.198;6.010;2023-07-20T11:34:20;2.10;;;1.02;;
70975;SDS011;58635;51.198;6.010;2023-07-20T11:36:48;1.40;;;0.80;;
70975;SDS011;58635;51.198;6.010;2023-07-20T11:39:16;2.17;;;1.00;;
70975;SDS011;58635;51.198;6.010;2023-07-20T11:41:50;1.23;;;0.80;;
70975;SDS011;58635;51.198;6.010;2023-07-20T11:44:18;2.50;;;0.90;;
70975;SDS011;58635;51.198;6.010;2023-07-20T11:49:36;2.28;;;1.30;;
70975;SDS011;58635;51.198;6.010;2023-07-20T11:52:08;1.20;;;0.70;;
70975;SDS011;58635;51.198;6.010;2023-07-20T11:54:35;1.83;;;0.90;;
70975;SDS011;58635;51.198;6.010;2023-07-20T11:57:05;1.90;;;1.08;;
70975;SDS011;58635;51.198;6.010;2023-07-20T11:59:32;2.42;;;0.77;;
70975;SDS011;58635;51.198;6.010;2023-07-20T12:02:02;1.67;;;0.73;;
70975;SDS011;58635;51.198;6.010;2023-07-20T12:04:30;3.30;;;0.70;;
70975;SDS011;58635;51.198;6.010;2023-07-20T12:06:58;1.40;;;0.70;;
70975;SDS011;58635;51.198;6.010;2023-07-20T12:09:25;2.08;;;0.60;;
70975;SDS011;58635;51.198;6.010;2023-07-20T12:11:51;1.58;;;0.88;;
70975;SDS011;58635;51.198;6.010;2023-07-20T12:14:18;0.95;;;0.70;;
70975;SDS011;58635;51.198;6.010;2023-07-20T12:16:44;1.35;;;0.80;;
70975;SDS011;58635;51.198;6.010;2023-07-20T12:19:19;1.00;;;0.80;;
70975;SDS011;58635;51.198;6.010;2023-07-20T12:21:48;1.13;;;0.70;;
70975;SDS011;58635;51.198;6.010;2023-07-20T12:24:14;1.52;;;0.90;;
70975;SDS011;58635;51.198;6.010;2023-07-20T12:26:40;2.53;;;1.00;;
70975;SDS011;58635;51.198;6.010;2023-07-20T12:29:07;2.72;;;1.00;;
70975;SDS011;58635;51.198;6.010;2023-07-20T12:31:33;1.67;;;0.80;;
70975;SDS011;58635;51.198;6.010;2023-07-20T12:34:02;1.92;;;0.80;;
70975;SDS011;58635;51.198;6.010;2023-07-20T12:36:29;1.60;;;0.60;;
70975;SDS011;58635;51.198;6.010;2023-07-20T12:38:57;1.05;;;0.60;;
70975;SDS011;58635;51.198;6.010;2023-07-20T12:41:24;1.65;;;0.68;;
70975;SDS011;58635;51.198;6.010;2023-07-20T12:43:50;0.57;;;0.57;;
70975;SDS011;58635;51.198;6.010;2023-07-20T12:46:17;0.77;;;0.47;;
70975;SDS011;58635;51.198;6.010;2023-07-20T12:48:43;1.30;;;0.70;;
70975;SDS011;58635;51.198;6.010;2023-07-20T12:51:10;1.35;;;0.70;;
70975;SDS011;58635;51.198;6.010;2023-07-20T12:53:37;1.60;;;0.70;;
70975;SDS011;58635;51.198;6.010;2023-07-20T12:56:04;1.42;;;0.90;;
70975;SDS011;58635;51.198;6.010;2023-07-20T12:58:31;1.25;;;0.70;;
70975;SDS011;58635;51.198;6.010;2023-07-20T13:00:57;2.67;;;0.88;;
70975;SDS011;58635;51.198;6.010;2023-07-20T13:03:24;1.38;;;0.80;;
70975;SDS011;58635;51.198;6.010;2023-07-20T13:05:50;1.02;;;0.60;;
70975;SDS011;58635;51.198;6.010;2023-07-20T13:08:17;3.50;;;0.90;;
70975;SDS011;58635;51.198;6.010;2023-07-20T13:10:45;1.40;;;0.70;;
70975;SDS011;58635;51.198;6.010;2023-07-20T13:13:12;3.40;;;0.80;;
70975;SDS011;58635;51.198;6.010;2023-07-20T13:15:42;8.07;;;1.85;;
70975;SDS011;58635;51.198;6.010;2023-07-20T13:18:10;2.20;;;0.70;;
70975;SDS011;58635;51.198;6.010;2023-07-20T13:20:36;1.45;;;0.70;;
70975;SDS011;58635;51.198;6.010;2023-07-20T13:23:02;0.75;;;0.68;;
70975;SDS011;58635;51.198;6.010;2023-07-20T13:25:30;2.95;;;0.90;;
70975;SDS011;58635;51.198;6.010;2023-07-20T13:27:56;2.17;;;0.70;;
70975;SDS011;58635;51.198;6.010;2023-07-20T13:30:23;3.10;;;0.93;;
70975;SDS011;58635;51.198;6.010;2023-07-20T13:32:49;0.80;;;0.68;;
70975;SDS011;58635;51.198;6.010;2023-07-20T13:35:16;1.00;;;0.75;;
70975;SDS011;58635;51.198;6.010;2023-07-20T13:37:42;1.48;;;0.80;;
70975;SDS011;58635;51.198;6.010;2023-07-20T13:40:08;1.42;;;0.85;;
70975;SDS011;58635;51.198;6.010;2023-07-20T13:42:39;1.30;;;0.90;;
70975;SDS011;58635;51.198;6.010;2023-07-20T13:45:06;3.97;;;2.00;;
70975;SDS011;58635;51.198;6.010;2023-07-20T13:47:33;3.58;;;1.10;;
70975;SDS011;58635;51.198;6.010;2023-07-20T13:50:00;1.17;;;0.80;;
70975;SDS011;58635;51.198;6.010;2023-07-20T13:52:27;2.33;;;0.80;;
70975;SDS011;58635;51.198;6.010;2023-07-20T13:54:53;1.20;;;0.80;;
70975;SDS011;58635;51.198;6.010;2023-07-20T13:57:19;2.22;;;0.90;;
70975;SDS011;58635;51.198;6.010;2023-07-20T13:59:46;4.22;;;0.90;;
70975;SDS011;58635;51.198;6.010;2023-07-20T14:02:13;3.08;;;0.95;;
70975;SDS011;58635;51.198;6.010;2023-07-20T14:04:41;2.08;;;0.77;;
70975;SDS011;58635;51.198;6.010;2023-07-20T14:07:07;2.38;;;1.00;;
70975;SDS011;58635;51.198;6.010;2023-07-20T14:09:34;5.05;;;0.82;;
70975;SDS011;58635;51.198;6.010;2023-07-20T14:12:00;2.90;;;0.70;;
70975;SDS011;58635;51.198;6.010;2023-07-20T14:14:27;3.60;;;0.75;;
70975;SDS011;58635;51.198;6.010;2023-07-20T14:16:53;5.50;;;1.08;;
70975;SDS011;58635;51.198;6.010;2023-07-20T14:19:20;2.28;;;1.08;;
70975;SDS011;58635;51.198;6.010;2023-07-20T14:21:46;6.65;;;1.45;;
70975;SDS011;58635;51.198;6.010;2023-07-20T14:24:12;8.15;;;1.00;;
70975;SDS011;58635;51.198;6.010;2023-07-20T14:26:39;1.52;;;0.80;;
70975;SDS011;58635;51.198;6.010;2023-07-20T14:29:05;3.22;;;0.80;;
70975;SDS011;58635;51.198;6.010;2023-07-20T14:31:31;2.17;;;0.80;;
70975;SDS011;58635;51.198;6.010;2023-07-20T14:33:58;2.88;;;1.00;;
70975;SDS011;58635;51.198;6.010;2023-07-20T14:36:24;3.70;;;1.17;;
70975;SDS011;58635;51.198;6.010;2023-07-20T14:38:51;2.38;;;0.90;;
70975;SDS011;58635;51.198;6.010;2023-07-20T14:41:17;1.88;;;1.00;;
70975;SDS011;58635;51.198;6.010;2023-07-20T14:43:43;2.50;;;0.82;;
70975;SDS011;58635;51.198;6.010;2023-07-20T14:46:10;1.35;;;0.73;;
70975;SDS011;58635;51.198;6.010;2023-07-20T14:48:36;1.98;;;0.73;;
70975;SDS011;58635;51.198;6.010;2023-07-20T14:51:03;3.08;;;0.90;;
70975;SDS011;58635;51.198;6.010;2023-07-20T14:53:29;1.60;;;0.90;;
70975;SDS011;58635;51.198;6.010;2023-07-20T14:55:58;2.13;;;0.80;;
70975;SDS011;58635;51.198;6.010;2023-07-20T14:58:27;1.08;;;0.70;;
70975;SDS011;58635;51.198;6.010;2023-07-20T15:00:54;3.00;;;0.90;;
70975;SDS011;58635;51.198;6.010;2023-07-20T15:03:31;2.53;;;0.80;;
70975;SDS011;58635;51.198;6.010;2023-07-20T15:05:57;1.80;;;0.80;;